Reno (UNR), Valley Road, Nevada Weather observations

Data are for observation ending at time listed.
 Day   Time    Ave.   Ave.  Ave.  Vector   Max.    Total    Solar   Rl      Baro.   Ave.  
  of    of     Air    Rel.  Wind   Wind    Wind   Precip.   Rad.    in      Pres.   Soil  
Year   Day     Temp.  Hum.  Speed  Dir.    Gust                                     Temp. 
2026   (PST)    F      %     mph   deg.    mph      in.     W/m2    W/m2     mb.     F   
-----------------------------------------------------------------------------------------
 121    7:00   53.2    44    2.4    46      5.0     0.00     353     300    865.9   57.6
 121    7:10   55.4    42    1.7    91      4.1     0.00     390     301    865.9   57.6
 121    7:20   56.8    41    2.3    80      4.8     0.00     426     305    865.9   57.6
 121    7:30   57.2    40    2.1    39      4.2     0.00     462     308    865.9   57.7
 121    7:40   57.4    39    2.4    56      4.0     0.00     494     312    865.8   57.7
 121    7:50   59.3    35    2.0    96      4.0     0.00     532     313    865.9   57.8
 121    8:00   59.4    34    2.3     4      3.8     0.00     552     319    865.9   57.9
 121    8:10   62.0    32    1.3   153      3.4     0.00     575     320    865.9   58.0
 121    8:20   63.1    30    1.5    40      3.4     0.00     605     325    865.7   58.2
 121    8:30   63.4    30    1.9    50      4.3     0.00     646     329    865.6   58.3
 121    8:40   62.8    28    3.7    60      6.9     0.00     662     331    865.7   58.5
 121    8:50   63.8    28    2.4    74      5.6     0.00     707     330    865.6   58.7
 121    9:00   68.0    24    2.6   128      6.9     0.00     739     334    865.5   58.9
 121    9:10   67.9    23    2.8    99      6.7     0.00     772     338    865.5   59.1
 121    9:20   68.1    22    4.1   127      8.5     0.00     798     340    865.5   59.2
 121    9:30   66.6    22    4.5    70      9.3     0.00     818     340    865.5   59.4
 121    9:40   68.8    22    3.7   162     10.1     0.00     842     340    865.4   59.5
 121    9:50   69.9    21    4.6   121      8.3     0.00     855     345    865.3   59.6
 121   10:00   70.0    21    3.7   224      7.1     0.00     888     339    865.3   59.6
 121   10:10   71.5    20    3.0   203      6.2     0.00     912     339    865.3   59.7
 121   10:20   71.2    20    4.8   210     13.4     0.00     937     348    865.2   59.8
 121   10:30   72.6    20    4.9   189     10.9     0.00     953     346    865.1   60.0
 121   10:40   72.1    19    6.2   122     13.2     0.00     969     350    864.9   60.2
 121   10:50   69.1    20    7.1    40     13.7     0.00     985     348    864.9   60.5
 121   11:00   70.0    20    3.8    57      8.1     0.00     993     346    864.8   60.8
 121   11:10   72.4    20    7.7   160     16.5     0.00    1007     350    864.6   61.2
 121   11:20   72.7    19    4.4   163     11.5     0.00    1022     350    864.6   61.6
 121   11:30   73.2    17    2.7   105      7.4     0.00    1019     354    864.5   62.0
 121   11:40   73.9    18    6.6   150     11.2     0.00    1028     355    864.4   62.4
 121   11:50   72.7    17    6.9    80     13.8     0.00    1024     352    864.2   62.9
 121   12:00   70.9    17    6.0    48     11.5     0.00    1019     351    864.2   63.3
 121   12:10   73.3    16    4.1   131      8.6     0.00    1028     351    864.0   63.8
 121   12:20   74.1    16    6.3   121     15.8     0.00    1006     358    864.0   64.2
 121   12:30   75.1    15    5.3   144     11.0     0.00    1014     355    864.0   64.7
 121   12:40   74.0    15    5.0    52     14.1     0.00    1004     358    863.9   65.1
 121   12:50   72.4    15    6.9    28     16.2     0.00    1020     358    863.7   65.6
 121   13:00   72.6    15    6.9    59     14.6     0.00    1018     355    863.7   66.0
 121   13:10   73.9    15    4.7   123     10.8     0.00     974     356    863.6   66.4
 121   13:20   75.0    14    4.0   104     10.3     0.00     988     359    863.4   66.7
 121   13:30   75.9    15    6.7   154     14.6     0.00     929     360    863.3   67.0
 121   13:40   77.1    14    3.7   128     10.6     0.00     957     361    863.2   67.3
 121   13:50   75.3    14    7.4    97     13.4     0.00     921     363    863.2   67.6
 121   14:00   73.4    14    8.7    45     14.9     0.00     853     359    863.0   67.8
 121   14:10   73.2    14    6.0    36      9.7     0.00     847     356    863.0   68.0
 121   14:20   74.0    13    4.9    58     13.2     0.00     827     358    862.7   68.2
 121   14:30   74.3    14    6.6    69     13.7     0.00     842     360    862.5   68.4
 121   14:40   74.0    14    4.8    61      9.5     0.00     781     359    862.4   68.6
 121   14:50   75.5    13    2.8   182      6.2     0.00     776     360    862.2   68.7
 121   15:00   78.1    13    5.7   139     12.4     0.00     763     362    862.0   68.9
 121   15:10   77.0    13    4.1    70      8.8     0.00     752     361    861.9   69.1
 121   15:20   74.9    13    4.6   359      7.8     0.00     700     358    861.8   69.3
 121   15:30   74.7    13    5.0    55     11.2     0.00     658     356    861.7   69.5
 121   15:40   74.8    13    4.0    41      9.4     0.00     625     356    861.7   69.7
 121   15:50   76.8    13    2.8    77      6.3     0.00     601     359    861.5   69.8
 121   16:00   77.6    13    3.1    91      8.2     0.00     581     360    861.4   70.0
 121   16:10   76.0    13    5.0    20      9.3     0.00     490     358    861.3   70.2
 121   16:20   75.9    13    3.9    96      8.1     0.00     483     356    861.3   70.3
 121   16:30   76.1    13    3.8    44     10.2     0.00     407     358    861.2   70.4
 121   16:40   75.4    13    3.6     7      8.1     0.00     414     356    861.2   70.6
 121   16:50   75.1    13    6.1    54     10.2     0.00     297     356    861.1   70.6
 121   17:00   73.6    13    5.9    30     10.8     0.00     148     349    861.0   70.7
 121   17:10   72.4    13    6.2    22     10.4     0.00     114     345    861.0   70.8
 121   17:20   72.5    13    3.5    69      7.3     0.00     138     350    861.0   70.8
 121   17:30   72.7    13    4.0    97      7.4     0.00     131     355    861.0   70.8
 121   17:40   72.4    13    4.0    92      6.9     0.00     132     357    860.9   70.8
 121   17:50   72.1    13    6.3    81     10.8     0.00     108     356    861.0   70.8
 121   18:00   71.5    13    6.0    89     10.4     0.00      89     353    860.9   70.7
 121   18:10   71.3    13    6.5    77     11.6     0.00      71     352    860.9   70.6
 121   18:20   70.8    13    5.7    88      9.6     0.00      52     349    860.9   70.5
 121   18:30   70.3    13    5.7    95     11.7     0.00      35     346    860.9   70.4
 121   18:40   69.8    13    4.7    87      9.3     0.00      17     343    860.9   70.3
 121   18:50   69.3    13    3.8    90      7.3     0.00       6     339    861.0   70.2
 121   19:00   68.9    13    5.4    86     11.0     0.00       2     339    861.0   70.0
 121   19:10   68.5    13    5.2    87     11.8     0.00       1     339    861.1   69.9
 121   19:20   68.2    13    4.3    89      7.6     0.00       0     334    861.2   69.7
 121   19:30   67.9    13    3.6   101      8.1     0.00       0     336    861.3   69.5
 121   19:40   67.3    13    4.0   106     10.1     0.00       0     340    861.4   69.4
 121   19:50   67.1    14    2.4   116      6.8     0.00       0     337    861.6   69.2
 121   20:00   66.0    15    2.1   229      4.2     0.00       0     334    861.8   69.0
 121   20:10   64.9    16    2.7   264      5.0     0.00       0     337    861.9   68.9
 121   20:20   63.6    18    3.5   224      5.3     0.00       0     343    862.0   68.7
 121   20:30   64.4    16    3.4   155      5.4     0.00       0     346    862.1   68.5
 121   20:40   63.5    18    1.7   318      3.5     0.00       0     347    862.2   68.3
 121   20:50   62.2    21    2.7   263      4.2     0.00       0     346    862.2   68.1
 121   21:00   62.7    22    2.7   267      4.3     0.00       0     346    862.3   68.0
 121   21:10   61.3    23    1.5   323      2.5     0.00       0     342    862.3   67.8
 121   21:20   60.6    24    2.8   273      3.8     0.00       0     339    862.3   67.6
 121   21:30   61.1    24    2.3   271      3.5     0.00       0     340    862.3   67.4
 121   21:40   60.5    26    3.2   262      4.3     0.00       0     339    862.3   67.3
 121   21:50   59.6    27    2.3   251      4.1     0.00       0     339    862.3   67.1
 121   22:00   59.5    26    2.0   326      3.9     0.00       0     336    862.3   66.9
 121   22:10   59.0    26    1.0   281      2.2     0.00       0     333    862.3   66.8
 121   22:20   58.6    27    2.0   263      3.0     0.00       0     330    862.3   66.6
 121   22:30   57.2    28    1.7   319      3.0     0.00       0     328    862.2   66.5
 121   22:40   56.1    30    2.3   321      3.3     0.00       0     328    862.2   66.3
 121   22:50   56.4    32    2.0   280      3.4     0.00       0     332    862.4   66.1
 121   23:00   56.7    38    2.8   261      4.5     0.00       0     333    862.4   66.0
 121   23:10   57.2    42    2.4   272      4.1     0.00       0     335    862.4   65.8
 121   23:20   57.1    43    2.6   286      4.2     0.00       0     336    862.4   65.7
 121   23:30   56.9    44    2.3   290      4.2     0.00       0     336    862.4   65.5
 121   23:40   56.7    46    2.6   301      4.7     0.00       0     336    862.4   65.4
 121   23:50   56.4    46    1.2   310      3.6     0.00       0     338    862.5   65.2
 122    0:00   55.8    47    0.8   293      1.8     0.00       0     335    862.3   65.1
 122    0:10   54.7    45    2.3   344      3.0     0.00       0     328    862.3   65.0
 122    0:20   54.3    40    2.5   325      3.3     0.00       0     328    862.3   64.8
 122    0:30   53.6    38    1.1   316      2.8     0.00       0     325    862.2   64.7
 122    0:40   53.3    36    2.4   303      2.9     0.00       0     323    862.1   64.6
 122    0:50   52.9    37    1.5   293      2.2     0.00       0     322    862.0   64.5
 122    1:00   52.4    40    1.7   297      2.5     0.00       0     320    861.9   64.3
 122    1:10   51.8    38    1.4   338      2.5     0.00       0     318    861.9   64.2
 122    1:20   51.2    39    2.1   322      2.9     0.00       0     316    861.7   64.1
 122    1:30   51.2    40    2.3   305      2.9     0.00       0     316    861.7   64.0
 122    1:40   51.6    43    2.2   300      3.0     0.00       0     317    861.6   63.8
 122    1:50   50.6    44    2.0   322      3.6     0.00       0     320    861.6   63.7
 122    2:00   50.6    46    1.8   343      3.7     0.00       0     321    861.4   63.6
 122    2:10   50.6    44    0.7   290      2.0     0.00       0     322    861.5   63.5
 122    2:20   50.3    48    1.3   336      2.3     0.00       0     320    861.4   63.3
 122    2:30   50.3    46    1.8   334      3.3     0.00       0     316    861.5   63.2
 122    2:40   49.6    48    1.9   332      2.9     0.00       0     312    861.5   63.1
 122    2:50   49.5    49    1.4   327      2.7     0.00       0     311    861.6   63.0
 122    3:00   49.2    51    1.7   333      2.5     0.00       0     311    861.6   62.8
 122    3:10   48.9    51    1.7   306      2.9     0.00       0     308    861.5   62.7
 122    3:20   48.5    56    1.6   339      3.5     0.00       0     308    861.6   62.6
 122    3:30   48.4    60    1.9   284      2.9     0.00       0     307    861.6   62.5
 122    3:40   48.7    58    2.3   300      2.9     0.00       0     309    861.6   62.3
 122    3:50   48.7    57    1.7   297      2.6     0.00       0     308    861.5   62.2
 122    4:00   47.9    55    1.5   312      2.3     0.00       0     307    861.6   62.1
 122    4:10   47.1    55    1.9   317      2.7     0.00       0     305    861.6   62.0
 122    4:20   46.9    53    2.0   324      2.7     0.00       0     306    861.7   61.9
 122    4:30   46.6    54    2.0   318      2.8     0.00       0     306    861.6   61.8
 122    4:40   46.7    53    1.4   316      2.2     0.00       0     308    861.7   61.7
 122    4:50   46.9    58    2.7   315      3.6     0.00       1     308    861.7   61.6
 122    5:00   48.1    60    2.3   339      3.6     0.00       2     306    861.6   61.4
 122    5:10   47.5    62    1.0   332      2.0     0.00       5     306    861.7   61.3
 122    5:20   47.0    64    1.3   242      1.8     0.00      16     306    861.7   61.2
 122    5:30   47.2    64    0.9    48      2.9     0.00      36     310    861.9   61.1
 122    5:40   47.5    64    2.3   334      3.3     0.00      54     315    861.9   61.0
 122    5:50   48.2    61    1.1   356      2.0     0.00      59     318    862.0   60.9
 122    6:00   48.7    58    0.1   314      1.8     0.00      73     319    862.0   60.8
 122    6:10   49.5    53    2.1   300      2.7     0.00      91     318    862.1   60.7
 122    6:20   50.5    51    1.3   313      2.4     0.00     123     319    862.2   60.6
 122    6:30   51.8    50    0.9   354      2.0     0.00     155     317    862.3   60.5
 122    6:40   53.6    49    0.4   191      1.3     0.00     148     315    862.3   60.4
 122    6:50   54.5    47    0.8   256      1.5     0.00     184     316    862.4   60.4

Return to Reno (UNR), Nevada graphs page.


Western Regional Climate Center,wrcc@dri.edu